Aérodrome :
LOGIN :

S'inscrire | Disclaimer

   EN    FR    IT 

 










Légende :    VFR   VFR Marginal   IFR   IFR Intensif   IFR Très Intensif
Visi : 
Plafond : 
>= 8 km
>= 3000ft
5 à 8 km
1000 à 3000 ft
1500m à 5 km
500 à 1000 ft
800 à 1500m
200 à 500 ft
< 800m
< 200 ft
Symboles :   Orages  Brouillard  Fortes neiges  Fortes précipitations  Vent > 20 kt
SIGMETs :   Divers  Orages  Givrage  Turbulence  Onde Orograph.  Cendres Volcan.







- Altitude de l'aérodrome : 291 ft
- Code IATA : ORY
- Voir les cartes d'approche


LFPO - Paris-Orly

DERNIER METAR :
  • 131630Z 21013KT 7000 -RA BKN009 09/07 Q1000 TEMPO 22020G35KT 3000 RA BKN008

METARs EXPIRÉS :
  • 131600Z 21012KT 5000 RA BR BKN011 BKN018 09/08 Q1000 TEMPO 22020G35KT 3000 RA BKN008
  • 131530Z 22012KT 190V250 5000 -RA BKN010 BKN016 08/07 Q1001 NOSIG
  • 131500Z 21013KT 8000 -RA BKN013 BKN019 BKN027 09/07 Q1002 NOSIG
  • 131430Z 21011KT 9999 BKN015 BKN032 BKN066 09/07 Q1003 NOSIG
  • 131400Z 22010KT 9999 SCT014 BKN048 09/07 Q1003 NOSIG

TAF TAF LFPO
Valide du 13 à 12h jusqu'au 14 à 18h UTC


131100Z 1312/1418 22020G30KT 9999 BKN025
BECMG 1314/1316 6000 -RA SCT008 BKN012
TEMPO 1315/1319 22020G35KT 3000 RA BKN008
BECMG 1319/1321 9999 NSW SCT030 SCT100
TEMPO 1323/1402 22025G45KT 3000 SHRA BKN012 SCT025CB BKN030
BECMG 1404/1407 22015G25KT
TEMPO 1410/1418 24020G30KT 4000 -SHRA SCT025CB BKN030
ATIS : +33 1 49 75 65 80
Pas de NOTAMs connus pour ce terrain.
4 SIGMETs publiés pour la FIR Paris (LFFF) :
 
Turbulence forte
LFFF SIGMET 6 VALID 131700/132000 LFPW
LFFF PARIS FIR/UIR SEV TURB FCST S OF N4745 AND W OF E00300 SFC/FL050 MOV NE 40KT INTSF=
Annulation du SIGMET 4 
LFFF SIGMET 5 VALID 131600/132100 LFPW
LFFF PARIS FIR/UIR CNL SIGMET 4 131700/132100=
SIGMET 4  ANNULÉ :
Turbulence forte
LFFF SIGMET 4 VALID 131700/132100 LFPW
LFFF PARIS FIR/UIR SEV TURB FCST S OF N4745 AND W OF E00300 SFC/FL050 MOV NE 40KT INTSF=
Turbulence forte
LFFF SIGMET 3 VALID 131600/132000 LFPW
LFFF PARIS FIR/UIR SEV TURB FCST WI N4900 W00015 - N5000 W00015 - N5115 E00200 - N5100 E00215 - N5000 E00215 - N4900 W00015 SFC/FL050 MOV E 50KT NC=



MET'MAP, la Météo Aéronautique d'un coup d'oeil ! - Copyright ORBIFLY Décembre 2007 - Disclaimer

ORBIFLY MET'MAP TEAM :

Programmation & Développement : Alexandra Zaïnal
Conception & Développement : Baudouin d'Aumeries
Co-Programmation & Développement : Marc-Olivier Méhu
Soutien technique & logistique : Manuel Goepfert

Contact : metmap@orbifly.com




SOURCES & CREDITS :

   NOAA